Time;durP1;ratioP1;P1;durP2;ratioP2;P2;SDS_P1;SDS_P2;PMS_P1;PMS_P2;Temp;Humidity;BMP_temperature;BMP_pressure;BME280_temperature;BME280_humidity;BME280_pressure;Samples;Min_cycle;Max_cycle;Signal;HPM_P1;HPM_P2
2022/12/27 04:00:55;;;;;;;10.52;3.88;;;;;;;-3.44;62.81;100303.56;5937772;23;20129;31
2022/12/27 04:57:18;;;;;;;12.93;5.75;;;;;;;-3.70;62.61;100125.22;5077755;23;20052;-94
2022/12/27 05:02:40;;;;;;;20.75;6.82;;;;;;;-3.64;62.74;100114.53;4863824;29;20044;-92
2022/12/27 05:05:18;;;;;;;15.18;6.93;;;;;;;-3.67;62.32;100084.72;4849681;29;20621;-95
2022/12/27 05:27:50;;;;;;;10.50;5.80;;;;;;;-2.66;62.14;100184.44;1093951;23;20328;-89
2022/12/27 05:30:21;;;;;;;11.95;6.32;;;;;;;-2.99;62.04;100135.44;4864092;24;20081;-94
2022/12/27 05:48:59;;;;;;;11.65;6.63;;;;;;;-2.54;61.80;100186.53;4916190;23;20039;-93
2022/12/27 05:51:48;;;;;;;16.20;6.70;;;;;;;-3.27;61.46;100048.22;4850545;24;20148;-93
2022/12/27 05:55:50;;;;;;;12.50;6.45;;;;;;;-2.56;61.65;100159.13;4770154;30;20576;-93
2022/12/27 05:58:39;;;;;;;12.10;6.30;;;;;;;-2.55;61.68;100148.25;4733934;30;20060;-93
2022/12/27 06:01:19;;;;;;;14.25;7.13;;;;;;;-2.61;62.01;100154.41;4983718;23;20250;-95
2022/12/27 06:03:53;;;;;;;12.98;7.22;;;;;;;-3.42;62.18;100005.63;4859647;29;20061;-93
2022/12/27 06:06:20;;;;;;;13.20;7.25;;;;;;;-3.04;62.58;100076.41;4862262;29;20189;-93
2022/12/27 06:09:07;;;;;;;16.35;7.55;;;;;;;-2.63;62.80;100149.25;4829900;29;20052;-94
2022/12/27 06:12:36;;;;;;;;;;;;;;;;;;;;;
2022/12/27 06:15:59;;;;;;;13.93;6.45;;;;;;;-3.05;63.01;100077.41;4854635;29;20042;-95
2022/12/27 06:18:25;;;;;;;14.48;7.93;;;;;;;-2.87;63.15;100105.22;4836363;29;20057;-93
2022/12/27 06:20:51;;;;;;;13.40;7.15;;;;;;;-3.21;62.99;100038.53;4994138;23;20132;-93
2022/12/27 06:23:56;;;;;;;11.15;6.30;;;;;;;-2.48;62.74;100148.22;4852058;29;20064;-94
2022/12/27 06:26:29;;;;;;;12.95;6.75;;;;;;;-2.39;62.88;100149.66;4877071;24;20124;-94
2022/12/27 06:30:04;;;;;;;13.23;6.53;;;;;;;-2.29;62.30;100154.56;4879303;29;20040;-95
2022/12/27 06:32:31;;;;;;;14.02;6.80;;;;;;;-2.57;61.99;100087.91;4869393;29;20045;-94
2022/12/27 06:35:00;;;;;;;14.18;6.85;;;;;;;-2.59;62.18;100072.03;4871089;29;20049;-93
2022/12/27 06:37:28;;;;;;;12.73;7.40;;;;;;;-2.75;61.55;100046.53;4855557;29;20503;-93
2022/12/27 06:39:54;;;;;;;13.43;6.78;;;;;;;-2.16;61.75;100136.63;4871322;29;20145;-93
2022/12/27 06:42:20;;;;;;;16.33;7.40;;;;;;;-2.77;61.59;100058.50;4863766;29;20096;-94
2022/12/27 06:44:47;;;;;;;12.00;6.75;;;;;;;-2.78;61.87;100068.38;4872857;29;20133;-93
2022/12/27 06:47:13;;;;;;;14.70;6.22;;;;;;;-2.71;61.64;100053.13;4858871;29;20068;-92
2022/12/27 06:49:40;;;;;;;14.43;6.80;;;;;;;-2.37;61.67;100086.00;4889833;29;20041;-93
2022/12/27 06:52:06;;;;;;;14.30;7.40;;;;;;;-2.33;61.91;100126.56;4874892;29;20147;-93
2022/12/27 06:54:34;;;;;;;10.70;6.57;;;;;;;-2.42;61.97;100093.84;4885454;29;20049;-92
2022/12/27 06:57:00;;;;;;;15.07;7.82;;;;;;;-2.42;61.30;100069.75;4885325;29;20193;-93
2022/12/27 06:59:27;;;;;;;15.32;7.20;;;;;;;-2.36;61.32;100085.78;4856918;29;20064;-93
2022/12/27 07:01:53;;;;;;;15.02;6.47;;;;;;;-2.48;61.72;100065.25;4854547;29;20101;-91
2022/12/27 07:04:19;;;;;;;11.80;6.50;;;;;;;-2.21;61.50;100098.13;4848039;29;20053;-92
2022/12/27 07:06:45;;;;;;;10.10;6.60;;;;;;;-2.19;61.72;100096.88;4872696;29;20072;-91
2022/12/27 07:09:13;;;;;;;13.45;7.50;;;;;;;-2.26;61.59;100057.75;4893733;29;20044;-94
2022/12/27 07:11:39;;;;;;;13.30;7.13;;;;;;;-2.23;61.39;100081.44;4869920;29;20051;-91
2022/12/27 07:14:09;;;;;;;11.32;6.95;;;;;;;-2.02;61.04;100101.75;4870513;29;20052;-91
2022/12/27 07:16:36;;;;;;;11.90;6.97;;;;;;;-2.04;61.08;100080.56;4865032;29;20037;-93
2022/12/27 07:19:03;;;;;;;12.73;7.17;;;;;;;-2.07;61.00;100058.72;4854450;29;20061;-91
2022/12/27 07:21:29;;;;;;;11.90;6.68;;;;;;;-2.13;61.56;100073.78;4854628;29;20192;-92
2022/12/27 07:23:56;;;;;;;11.77;6.70;;;;;;;-2.51;61.63;100026.31;4868697;29;20178;-92
2022/12/27 07:26:28;;;;;;;13.15;7.28;;;;;;;-2.26;61.84;100042.50;4854956;29;20057;-91
2022/12/27 07:29:00;;;;;;;13.57;7.35;;;;;;;-2.08;62.32;100065.13;4887712;29;20097;-92
2022/12/27 07:31:29;;;;;;;15.77;7.75;;;;;;;-2.11;62.06;100036.09;4871790;29;20041;-91
2022/12/27 07:34:01;;;;;;;12.27;6.82;;;;;;;-1.99;61.75;100050.44;4853846;29;20053;-92
2022/12/27 07:36:33;;;;;;;14.30;8.38;;;;;;;-2.43;62.19;99974.41;4854303;29;20136;-93
2022/12/27 07:38:59;;;;;;;17.73;7.85;;;;;;;-2.28;62.01;99977.66;4854610;29;20503;-92
2022/12/27 07:41:25;;;;;;;19.80;8.10;;;;;;;-2.17;61.82;99986.84;4855025;29;20048;-93
2022/12/27 07:43:53;;;;;;;12.15;7.30;;;;;;;-2.22;61.80;99971.44;4854089;29;20044;-91
2022/12/27 07:46:22;;;;;;;16.80;7.63;;;;;;;-2.19;61.96;99997.78;4880866;24;20110;-93
2022/12/27 07:48:48;;;;;;;12.52;7.30;;;;;;;-2.43;62.21;99924.34;4850417;29;20026;-93
2022/12/27 07:51:17;;;;;;;15.27;8.48;;;;;;;-2.00;61.92;99973.78;4817999;29;20046;-94
2022/12/27 07:53:46;;;;;;;13.10;7.40;;;;;;;-1.73;61.83;100020.00;4816527;29;20045;-94
2022/12/27 07:56:19;;;;;;;15.00;7.75;;;;;;;-2.01;61.76;99974.84;4832485;29;20049;-92
2022/12/27 07:58:50;;;;;;;21.65;8.05;;;;;;;-1.74;61.60;100015.69;4817377;29;20160;-92
2022/12/27 08:01:18;;;;;;;12.85;6.93;;;;;;;-1.74;61.45;100013.03;4847619;29;20509;-94
2022/12/27 08:03:49;;;;;;;16.95;7.85;;;;;;;-2.28;61.96;99953.53;4818060;29;20485;-94
2022/12/27 08:06:27;;;;;;;12.98;7.00;;;;;;;-1.90;62.30;99996.41;4814638;29;20137;-93
2022/12/27 08:08:56;;;;;;;16.33;7.90;;;;;;;-2.22;61.88;99914.34;4828559;29;20034;-93
2022/12/27 08:11:28;;;;;;;13.98;7.45;;;;;;;-1.98;61.99;99952.97;4896425;24;20037;-92
2022/12/27 08:13:55;;;;;;;12.80;7.95;;;;;;;-1.40;61.00;100021.66;4897162;24;20077;-90
2022/12/27 08:16:28;;;;;;;14.67;8.27;;;;;;;-1.74;60.85;99957.56;4871850;24;20044;-91
2022/12/27 08:18:57;;;;;;;11.70;6.97;;;;;;;-1.94;60.71;99941.59;4827136;29;20067;-92
2022/12/27 08:21:24;;;;;;;14.18;7.60;;;;;;;-1.72;60.80;99952.81;4872694;29;20048;-93
2022/12/27 08:23:50;;;;;;;;;;;;;;;-1.36;60.67;99994.19;4875334;29;20041;-91
2022/12/27 08:26:16;;;;;;;15.00;7.13;;;;;;;-2.12;60.75;99874.53;4867699;29;20479;-94
2022/12/27 08:28:46;;;;;;;12.38;7.25;;;;;;;-2.15;60.96;99869.63;4837411;29;20137;-93
2022/12/27 08:31:13;;;;;;;12.55;7.30;;;;;;;-1.71;60.87;99926.81;4853629;29;20105;-92
2022/12/27 08:34:05;;;;;;;13.68;8.10;;;;;;;-1.46;60.92;99975.06;4823823;29;20408;-92
2022/12/27 08:36:33;;;;;;;19.13;7.45;;;;;;;-1.63;60.86;99936.44;4852418;29;20143;-92
2022/12/27 08:39:06;;;;;;;13.50;7.45;;;;;;;-1.74;60.75;99901.25;4861264;29;20040;-91
2022/12/27 08:41:32;;;;;;;15.48;7.57;;;;;;;-1.46;60.57;99950.94;4855648;29;20056;-91
2022/12/27 08:43:59;;;;;;;13.90;7.47;;;;;;;-1.39;61.30;99949.06;4867606;29;20044;-92
2022/12/27 08:46:25;;;;;;;15.00;8.02;;;;;;;-1.44;61.02;99930.91;4836504;29;20045;-91
2022/12/27 08:48:52;;;;;;;24.15;8.27;;;;;;;-1.40;60.66;99925.13;4818791;29;20523;-92
2022/12/27 08:51:24;;;;;;;16.88;8.50;;;;;;;-1.33;61.01;99926.69;4834293;29;20053;-92
2022/12/27 08:54:06;;;;;;;19.13;8.30;;;;;;;-1.16;61.02;99963.69;4875905;23;20048;-92
2022/12/27 08:56:34;;;;;;;17.60;8.50;;;;;;;-1.40;61.13;99896.44;4855562;29;20531;-90
2022/12/27 08:59:29;;;;;;;19.67;8.20;;;;;;;-1.07;61.07;99936.38;4809364;29;20409;-91
2022/12/27 09:02:03;;;;;;;15.98;9.10;;;;;;;-1.26;61.36;99918.59;4821240;29;20053;-91
2022/12/27 09:04:56;;;;;;;19.38;9.90;;;;;;;-1.11;61.53;99924.44;4850624;24;20057;-92
2022/12/27 09:07:32;;;;;;;14.77;8.25;;;;;;;-1.36;61.40;99883.41;4854108;29;20056;-93
2022/12/27 09:09:59;;;;;;;15.93;9.70;;;;;;;-1.41;61.97;99868.00;4839585;29;20045;-93
2022/12/27 09:12:25;;;;;;;19.38;9.40;;;;;;;-1.45;61.31;99856.06;4851117;29;20122;-91
2022/12/27 09:15:17;;;;;;;16.38;8.70;;;;;;;-1.31;61.64;99868.31;4851525;29;20416;-91
2022/12/27 09:17:44;;;;;;;16.27;8.68;;;;;;;-1.02;61.63;99896.28;4869482;29;20500;-91
2022/12/27 09:20:19;;;;;;;;;;;;;;;-1.04;61.44;99906.41;4856482;29;20140;-92
2022/12/27 09:22:45;;;;;;;13.95;8.23;;;;;;;-1.06;62.04;99907.66;4874672;29;19924;-93
2022/12/27 09:25:11;;;;;;;16.65;8.98;;;;;;;-1.09;61.89;99894.69;4856908;29;20037;-94
2022/12/27 09:30:54;;;;;;;18.67;9.23;;;;;;;-1.47;61.83;99829.47;4784189;29;20154;-93
2022/12/27 09:33:20;;;;;;;16.70;9.00;;;;;;;-1.61;61.20;99786.94;4942597;24;20073;-91
2022/12/27 09:35:51;;;;;;;20.70;9.27;;;;;;;-1.48;60.85;99800.22;4845668;29;20042;-92
2022/12/27 09:38:24;;;;;;;14.63;8.20;;;;;;;-1.17;60.84;99834.13;4821796;29;20079;-93
2022/12/27 09:41:04;;;;;;;17.25;8.52;;;;;;;-1.10;60.90;99817.94;4812243;29;20045;-93
2022/12/27 09:44:02;;;;;;;17.13;8.50;;;;;;;-1.44;61.02;99782.63;4779789;29;20046;-95
2022/12/27 09:47:00;;;;;;;16.20;8.00;;;;;;;-0.93;61.12;99861.91;4818089;29;20050;-92
2022/12/27 09:50:15;;;;;;;19.17;9.15;;;;;;;-1.28;60.95;99811.53;4831417;29;20049;-92
2022/12/27 09:57:12;;;;;;;17.02;8.32;;;;;;;-1.11;60.68;99805.59;4799748;29;20055;-92
2022/12/27 09:59:47;;;;;;;16.73;8.65;;;;;;;-1.15;60.72;99804.41;4772279;30;20051;-92
2022/12/27 10:02:24;;;;;;;22.50;8.82;;;;;;;-0.77;60.99;99858.63;4831530;24;20770;-94
2022/12/27 10:04:53;;;;;;;20.13;8.88;;;;;;;-1.09;61.04;99801.63;4901231;29;20142;-94
2022/12/27 10:11:35;;;;;;;22.20;9.55;;;;;;;-0.79;61.28;99852.66;4889626;29;20056;-94
2022/12/27 10:14:25;;;;;;;16.63;8.70;;;;;;;-0.62;61.17;99849.38;4901672;29;20056;-91
2022/12/27 10:29:00;;;;;;;;;;;;;;;-0.75;61.89;99829.69;4912804;29;20503;-94
2022/12/27 10:31:41;;;;;;;15.85;8.25;;;;;;;-1.01;61.78;99795.94;4868480;29;19911;-93
2022/12/27 10:37:58;;;;;;;18.70;8.35;;;;;;;-0.68;61.94;99818.06;4854813;29;20062;-92
2022/12/27 10:40:54;;;;;;;21.63;8.80;;;;;;;-1.21;61.70;99714.91;4827727;29;20056;-93
2022/12/27 10:43:49;;;;;;;16.83;8.45;;;;;;;-0.62;62.02;99801.03;4881432;29;20111;-95
2022/12/27 10:46:42;;;;;;;16.40;8.50;;;;;;;-0.46;61.46;99803.09;4980272;23;20045;-93
2022/12/27 10:52:22;;;;;;;15.55;8.00;;;;;;;-1.17;62.29;99701.84;4885472;23;20036;-91
2022/12/27 11:01:31;;;;;;;17.85;9.13;;;;;;;-1.04;61.96;99670.28;4985806;23;20037;-92
2022/12/27 11:04:23;;;;;;;24.15;10.43;;;;;;;-0.93;62.24;99705.44;4890329;24;20057;-92
2022/12/27 11:07:16;;;;;;;16.88;8.48;;;;;;;-0.53;62.74;99770.94;4919925;23;20049;-92
2022/12/27 11:09:44;;;;;;;16.02;8.07;;;;;;;-0.75;62.46;99716.94;4843034;29;20060;-93
2022/12/27 11:12:35;;;;;;;15.80;8.73;;;;;;;-0.39;62.45;99765.38;4860480;29;20503;-92
2022/12/27 11:15:22;;;;;;;18.83;9.07;;;;;;;-0.34;62.48;99762.81;4858309;29;20049;-92
2022/12/27 11:18:18;;;;;;;18.95;9.20;;;;;;;-0.44;62.65;99741.06;4845445;29;20122;-93
2022/12/27 11:20:58;;;;;;;17.25;9.00;;;;;;;-0.55;63.08;99740.00;4844661;29;20049;-93
2022/12/27 11:23:36;;;;;;;15.43;7.90;;;;;;;-0.51;63.26;99731.25;4846238;29;20515;-93
2022/12/27 11:26:22;;;;;;;14.52;8.82;;;;;;;-0.48;63.38;99725.41;4853499;23;20053;-92
2022/12/27 11:29:05;;;;;;;16.33;8.77;;;;;;;-1.07;63.07;99618.97;4848744;29;20149;-94
2022/12/27 11:35:14;;;;;;;19.58;9.75;;;;;;;-0.39;63.32;99707.13;4820942;29;20061;-94
2022/12/27 11:38:05;;;;;;;;;;;;;;;-0.45;63.49;99708.03;5088723;24;20093;-92
2022/12/27 11:47:53;;;;;;;20.65;9.07;;;;;;;-0.50;63.83;99711.41;5311944;23;20868;-94
2022/12/27 12:12:43;;;;;;;23.75;9.27;;;;;;;-0.32;64.08;99686.31;4888771;29;20325;-94
2022/12/27 12:15:52;;;;;;;19.83;9.02;;;;;;;-0.61;64.23;99628.97;4853062;29;20048;-95
2022/12/27 12:19:40;;;;;;;17.58;9.82;;;;;;;-0.93;63.87;99561.34;4892016;29;20058;-94
2022/12/27 12:22:28;;;;;;;19.63;9.68;;;;;;;-0.61;63.98;99607.47;4837479;29;20045;-93
2022/12/27 12:25:26;;;;;;;22.35;9.65;;;;;;;-0.25;64.57;99670.09;4864441;29;20034;-93
2022/12/27 12:32:29;;;;;;;20.40;9.20;;;;;;;-0.18;64.51;99664.59;4863760;29;20049;-93
2022/12/27 12:35:33;;;;;;;18.23;9.57;;;;;;;-0.16;64.26;99652.56;4811609;29;20034;-91
2022/12/27 12:41:30;;;;;;;17.35;9.32;;;;;;;-0.18;64.66;99649.28;4896371;29;20109;-92
2022/12/27 12:44:48;;;;;;;24.85;9.50;;;;;;;-0.21;65.28;99651.63;4880290;29;20064;-93
2022/12/27 12:47:52;;;;;;;23.77;10.60;;;;;;;-0.16;65.04;99641.03;4808523;29;20105;-93
2022/12/27 12:51:27;;;;;;;24.02;10.88;;;;;;;-0.24;65.22;99632.22;4829543;29;20034;-93
2022/12/27 12:54:30;;;;;;;22.17;10.18;;;;;;;-0.46;65.66;99593.59;4844308;23;20071;-92
2022/12/27 12:57:28;;;;;;;23.58;10.77;;;;;;;-0.27;65.78;99635.38;4925153;29;20052;-93
2022/12/27 13:00:51;;;;;;;30.05;12.13;;;;;;;-0.32;65.52;99591.50;4852801;29;20058;-94
2022/12/27 13:04:04;;;;;;;20.63;10.18;;;;;;;-0.13;65.27;99627.94;4835622;29;20059;-94
2022/12/27 13:07:23;;;;;;;20.70;10.80;;;;;;;-0.25;65.86;99625.25;4804111;29;20054;-93
2022/12/27 13:10:23;;;;;;;21.50;11.18;;;;;;;-0.22;66.24;99621.28;4833422;29;20062;-95
2022/12/27 13:13:44;;;;;;;20.42;10.57;;;;;;;-0.10;65.89;99618.56;4814099;29;20065;-94
2022/12/27 13:17:12;;;;;;;18.08;9.13;;;;;;;-0.18;65.90;99613.56;4834937;29;20057;-93
2022/12/27 13:20:32;;;;;;;19.83;10.50;;;;;;;-0.04;65.81;99604.19;5140876;23;20043;-95
2022/12/27 13:46:17;;;;;;;21.08;11.00;;;;;;;0.00;67.24;99581.19;5112768;23;20061;-93
2022/12/27 13:49:44;;;;;;;23.42;11.88;;;;;;;0.12;66.78;99579.25;4918016;23;20056;-95
2022/12/27 13:59:30;;;;;;;24.80;12.15;;;;;;;0.10;66.88;99570.63;5112957;23;20053;-91
2022/12/27 14:02:58;;;;;;;25.15;12.23;;;;;;;0.14;66.85;99579.84;4889374;24;20080;-90
2022/12/27 14:10:03;;;;;;;23.95;11.30;;;;;;;0.21;66.10;99558.22;4931973;29;20092;-93
2022/12/27 14:12:57;;;;;;;25.95;11.73;;;;;;;0.42;66.30;99564.78;4828718;29;20069;-92
2022/12/27 14:15:55;;;;;;;23.48;12.38;;;;;;;0.03;66.16;99513.50;4802079;29;20118;-93
2022/12/27 14:18:29;;;;;;;24.00;11.77;;;;;;;-0.10;66.48;99494.97;4877509;24;20069;-94
2022/12/27 14:21:48;;;;;;;20.52;11.95;;;;;;;0.42;66.05;99557.53;4814300;29;20184;-87
2022/12/27 14:24:32;;;;;;;21.08;11.20;;;;;;;0.46;66.40;99553.31;4787913;29;20077;-94
2022/12/27 14:27:18;;;;;;;24.02;12.18;;;;;;;0.49;66.27;99549.31;4813419;29;20058;-91
2022/12/27 14:29:56;;;;;;;26.23;12.27;;;;;;;0.58;66.33;99544.38;4813978;29;20604;-92
2022/12/27 14:33:03;;;;;;;27.02;11.70;;;;;;;0.54;66.28;99559.38;4797402;29;20051;-89
2022/12/27 14:36:08;;;;;;;23.00;11.95;;;;;;;0.63;65.92;99542.59;4813553;29;20051;-92
2022/12/27 14:39:24;;;;;;;26.13;12.07;;;;;;;0.68;66.16;99537.28;4809612;29;20047;-89
2022/12/27 14:43:03;;;;;;;23.55;11.55;;;;;;;0.68;66.01;99531.91;4810432;29;20075;-91
2022/12/27 14:45:33;;;;;;;25.50;10.82;;;;;;;0.65;66.15;99532.38;4796447;29;20046;-91
2022/12/27 14:48:33;;;;;;;30.75;14.05;;;;;;;0.71;66.34;99533.31;4797995;29;20027;-92
2022/12/27 14:51:57;;;;;;;31.63;13.02;;;;;;;0.42;65.84;99481.41;4828236;29;20073;-91
2022/12/27 14:54:32;;;;;;;24.85;12.30;;;;;;;0.84;65.85;99529.47;4823106;23;20063;-88
2022/12/27 14:57:31;;;;;;;29.52;12.70;;;;;;;0.70;66.00;99510.16;4886001;29;20048;-90
2022/12/27 15:10:04;;;;;;;33.28;14.77;;;;;;;0.91;66.79;99511.31;4985301;23;20059;-93
2022/12/27 15:13:19;;;;;;;28.25;13.68;;;;;;;0.99;66.46;99502.00;4884707;29;20052;-89
2022/12/27 15:19:20;;;;;;;28.42;13.57;;;;;;;1.21;66.08;99508.25;4905290;23;20002;-91
2022/12/27 15:25:53;;;;;;;29.48;13.70;;;;;;;1.18;65.94;99490.72;5253649;23;20033;-89
2022/12/27 15:28:40;;;;;;;26.50;13.63;;;;;;;1.08;66.52;99504.03;4863468;29;20750;-93
2022/12/27 15:31:48;;;;;;;27.20;13.55;;;;;;;1.11;66.63;99505.41;4865051;29;20075;-94
2022/12/27 15:35:16;;;;;;;29.85;13.90;;;;;;;1.18;66.59;99485.31;4880633;29;20049;-88
2022/12/27 15:38:35;;;;;;;31.08;14.50;;;;;;;0.87;66.63;99445.56;4908303;29;20064;-88
2022/12/27 15:41:47;;;;;;;33.15;14.07;;;;;;;1.12;66.88;99480.13;4888769;29;20043;-91
2022/12/27 15:44:51;;;;;;;35.60;15.40;;;;;;;1.08;67.14;99473.59;4874927;29;20057;-93
2022/12/27 15:50:54;;;;;;;28.17;13.18;;;;;;;0.60;66.79;99376.28;5085844;24;20053;-90
2022/12/27 15:53:42;;;;;;;29.83;14.43;;;;;;;1.19;67.15;99478.06;4847322;29;20037;-88
2022/12/27 15:56:58;;;;;;;29.50;13.88;;;;;;;1.26;66.87;99459.03;4834040;29;20364;-94
2022/12/27 15:59:47;;;;;;;31.33;14.32;;;;;;;0.60;66.91;99359.34;4874756;29;20056;-93
2022/12/27 16:03:26;;;;;;;30.60;13.88;;;;;;;1.36;66.62;99467.28;4864169;29;20561;-91
2022/12/27 16:05:54;;;;;;;31.05;14.43;;;;;;;1.09;66.71;99410.63;4834484;29;20049;-92
2022/12/27 16:12:05;;;;;;;31.65;14.05;;;;;;;1.42;66.47;99444.72;4867978;29;20045;-91
2022/12/27 16:14:42;;;;;;;30.05;13.70;;;;;;;1.42;66.44;99442.03;4839778;29;20042;-91
2022/12/27 16:17:36;;;;;;;33.28;14.25;;;;;;;1.41;66.71;99440.41;4868706;29;20049;-93
2022/12/27 16:20:14;;;;;;;30.02;13.45;;;;;;;1.18;66.66;99412.63;4810226;29;20046;-90
2022/12/27 16:22:49;;;;;;;34.53;13.73;;;;;;;0.59;66.93;99320.03;4837883;29;20054;-91
2022/12/27 16:25:43;;;;;;;34.50;13.75;;;;;;;1.27;67.13;99431.06;4825469;29;20052;-91
2022/12/27 16:28:15;;;;;;;30.95;13.90;;;;;;;1.34;67.11;99423.63;4833149;29;20067;-91
2022/12/27 16:30:48;;;;;;;31.35;14.32;;;;;;;0.91;66.96;99364.09;4825998;29;20046;-89
2022/12/27 16:33:34;;;;;;;28.27;12.75;;;;;;;0.98;67.33;99355.84;4854438;29;20057;-92
2022/12/27 16:36:14;;;;;;;32.60;14.27;;;;;;;1.51;66.76;99424.38;4840959;29;20053;-91
2022/12/27 16:39:17;;;;;;;31.02;15.02;;;;;;;1.44;66.55;99420.25;4824817;29;20472;-87
2022/12/27 16:41:49;;;;;;;33.83;15.63;;;;;;;1.40;67.00;99417.22;4826064;29;20086;-94
2022/12/27 16:44:25;;;;;;;36.72;16.17;;;;;;;1.40;66.93;99417.22;4856451;29;20045;-92
2022/12/27 16:47:31;;;;;;;38.90;17.90;;;;;;;1.45;67.15;99406.50;4823098;29;20113;-90
2022/12/27 16:50:13;;;;;;;43.95;18.52;;;;;;;1.06;67.07;99350.03;4825051;29;20056;-93
2022/12/27 16:53:18;;;;;;;35.67;15.57;;;;;;;0.97;67.20;99330.00;4820687;29;20046;-93
2022/12/27 16:56:24;;;;;;;47.00;19.45;;;;;;;1.06;67.31;99335.72;4802636;29;20050;-92
2022/12/27 17:01:44;;;;;;;36.70;16.88;;;;;;;1.54;67.34;99383.44;4778383;30;20051;-89
2022/12/27 17:04:32;;;;;;;;;;;;;;;1.52;67.21;99385.56;4730771;30;20146;-91
2022/12/27 17:07:54;;;;;;;38.05;16.00;;;;;;;1.25;67.11;99337.06;4756730;30;19929;-91
2022/12/27 17:10:33;;;;;;;36.85;16.40;;;;;;;1.50;67.58;99371.56;4750993;30;20076;-89
2022/12/27 17:13:41;;;;;;;33.47;14.38;;;;;;;1.44;67.70;99369.06;4743714;30;20122;-92
2022/12/27 17:16:54;;;;;;;35.85;15.52;;;;;;;1.55;67.46;99360.81;4733033;30;20470;-85
2022/12/27 17:19:35;;;;;;;35.95;15.52;;;;;;;1.53;67.95;99365.66;4729684;30;20057;-86
2022/12/27 17:22:15;;;;;;;34.97;15.50;;;;;;;1.46;67.88;99359.66;4744725;30;20117;-88
2022/12/27 17:24:57;;;;;;;35.58;16.48;;;;;;;1.48;67.93;99356.72;4737425;30;20057;-90
2022/12/27 17:27:57;;;;;;;31.63;14.40;;;;;;;1.36;68.04;99338.00;4734447;30;20135;-91
2022/12/27 17:30:58;;;;;;;29.80;13.27;;;;;;;1.11;67.99;99274.69;4754070;30;20082;-89
2022/12/27 17:33:47;;;;;;;29.48;13.38;;;;;;;1.60;67.99;99358.19;4752695;30;20056;-91
2022/12/27 17:36:19;;;;;;;32.25;13.80;;;;;;;1.61;67.97;99345.53;4752987;30;20076;-88
2022/12/27 17:39:25;;;;;;;32.25;13.57;;;;;;;1.64;67.79;99343.16;4745838;30;20072;-91
2022/12/27 17:45:29;;;;;;;29.35;13.15;;;;;;;1.56;68.04;99330.16;4822033;29;19912;-91
2022/12/27 17:48:22;;;;;;;31.90;13.77;;;;;;;1.57;68.44;99328.25;4882182;29;20049;-89
2022/12/27 17:51:16;;;;;;;34.00;14.98;;;;;;;1.01;68.33;99238.78;4859239;29;20045;-89
2022/12/27 17:57:52;;;;;;;29.85;13.48;;;;;;;0.89;68.42;99231.66;4868394;29;20058;-91
2022/12/27 17:59:31;;;;;;;32.00;13.88;;;;;;;1.23;68.46;99257.59;4868425;29;20034;-88
2022/12/27 18:02:22;;;;;;;25.95;12.35;;;;;;;1.32;68.45;99269.53;4831857;29;20062;-91
2022/12/27 18:05:01;;;;;;;28.88;13.45;;;;;;;1.15;68.48;99248.09;4846672;29;20057;-89
2022/12/27 18:07:58;;;;;;;30.40;13.50;;;;;;;1.31;68.63;99263.34;4839522;29;20077;-92
2022/12/27 18:10:40;;;;;;;32.13;13.18;;;;;;;0.86;68.76;99204.44;4827156;29;20429;-90
2022/12/27 18:13:19;;;;;;;29.55;13.18;;;;;;;1.22;68.68;99247.88;4827083;29;20043;-89
2022/12/27 18:16:20;;;;;;;29.33;12.30;;;;;;;1.54;68.92;99310.72;4842253;29;20136;-88
2022/12/27 18:18:49;;;;;;;29.05;13.20;;;;;;;0.98;69.04;99234.72;4858839;29;20094;-89
2022/12/27 18:21:28;;;;;;;33.70;14.63;;;;;;;1.53;69.20;99295.63;4863754;29;20034;-88
2022/12/27 18:23:56;;;;;;;29.27;12.45;;;;;;;1.44;68.85;99267.50;4865530;29;20060;-89
2022/12/27 18:26:49;;;;;;;27.02;11.85;;;;;;;1.68;68.81;99299.53;4862488;29;20061;-90
2022/12/27 18:29:23;;;;;;;30.42;12.30;;;;;;;1.49;68.84;99269.44;4844183;29;20046;-89
2022/12/27 18:32:09;;;;;;;25.92;12.43;;;;;;;1.22;69.07;99227.16;4838323;29;20258;-93
2022/12/27 18:35:02;;;;;;;26.42;11.48;;;;;;;1.67;69.05;99287.13;4865753;29;20045;-87
2022/12/27 18:37:35;;;;;;;28.63;12.15;;;;;;;1.07;69.21;99205.47;4872056;29;20109;-87
2022/12/27 18:40:25;;;;;;;;;;;;;;;1.62;69.33;99277.09;4857144;29;20068;-89
2022/12/27 18:42:53;;;;;;;31.48;12.75;;;;;;;1.53;69.14;99257.91;4854127;29;19927;-87
2022/12/27 18:45:39;;;;;;;43.63;26.00;;;;;;;1.66;69.35;99275.56;4852542;29;20037;-90
2022/12/27 18:48:32;;;;;;;51.55;30.73;;;;;;;0.99;69.11;99163.66;4858067;29;20033;-90
2022/12/27 18:50:59;;;;;;;27.05;11.85;;;;;;;1.14;69.28;99184.53;4877607;23;20071;-89
2022/12/27 18:53:51;;;;;;;32.03;13.38;;;;;;;1.55;69.20;99236.09;4875338;29;20040;-90
2022/12/27 18:56:34;;;;;;;27.35;12.23;;;;;;;1.49;69.64;99235.25;4775611;30;20059;-85
2022/12/27 19:02:34;;;;;;;27.70;11.93;;;;;;;1.65;69.41;99253.16;4810824;29;20056;-85
2022/12/27 19:05:26;;;;;;;24.25;11.60;;;;;;;1.64;69.31;99256.13;4782615;30;20070;-83
2022/12/27 19:08:19;;;;;;;27.48;11.55;;;;;;;1.54;69.23;99232.59;4772798;30;20052;-85
2022/12/27 19:10:50;;;;;;;26.83;11.35;;;;;;;1.65;69.86;99255.84;4738469;30;20051;-87
2022/12/27 19:13:26;;;;;;;26.83;12.48;;;;;;;1.44;69.81;99210.94;4784168;30;20113;-88
2022/12/27 19:15:54;;;;;;;26.45;11.57;;;;;;;1.09;69.21;99157.56;4781347;30;20084;-96
2022/12/27 19:18:49;;;;;;;31.83;12.48;;;;;;;1.74;69.57;99245.44;4772816;30;20059;-92
2022/12/27 19:21:17;;;;;;;24.65;11.85;;;;;;;1.23;69.62;99183.03;4757441;30;20112;-93
2022/12/27 19:24:44;;;;;;;25.48;12.48;;;;;;;1.07;69.22;99140.88;4731117;30;20043;-92
2022/12/27 19:27:22;;;;;;;28.88;12.00;;;;;;;1.62;68.79;99199.81;4664698;30;20067;-91
2022/12/27 19:30:14;;;;;;;26.25;11.52;;;;;;;1.65;68.77;99199.28;4652699;30;20055;-93
2022/12/27 19:36:42;;;;;;;31.52;18.52;;;;;;;1.73;69.36;99238.41;4665653;30;20051;-93
2022/12/27 19:39:47;;;;;;;27.13;14.60;;;;;;;1.10;69.30;99127.72;4669697;30;20122;-93
2022/12/27 19:45:43;;;;;;;31.90;12.98;;;;;;;2.01;68.71;99225.69;4819172;29;20052;-93
2022/12/27 19:48:42;;;;;;;28.52;11.50;;;;;;;1.99;68.50;99225.97;4822860;29;20050;-93
2022/12/27 19:51:16;;;;;;;;;;;;;;;1.95;68.46;99219.44;4825995;29;20042;-93
2022/12/27 19:53:54;;;;;;;27.83;11.15;;;;;;;1.43;68.17;99114.25;4836626;29;20018;-93
2022/12/27 19:56:25;;;;;;;33.92;10.13;;;;;;;1.51;68.34;99132.63;4809987;29;20083;-93
2022/12/27 19:58:53;;;;;;;28.05;11.98;;;;;;;1.76;68.32;99178.63;4805676;29;20080;-86
2022/12/27 20:08:49;;;;;;;33.72;12.05;;;;;;;1.85;68.52;99170.84;4895757;29;20131;-88
2022/12/27 20:12:01;;;;;;;29.33;10.98;;;;;;;1.99;68.45;99209.78;4875298;29;20147;-91
2022/12/27 20:15:49;;;;;;;27.00;11.32;;;;;;;2.05;68.83;99203.34;4862534;29;20055;-89
2022/12/27 20:18:56;;;;;;;35.72;12.23;;;;;;;2.06;68.76;99190.69;4884613;29;20043;-93
2022/12/27 20:21:47;;;;;;;26.98;10.48;;;;;;;1.62;68.57;99120.84;4804980;29;20054;-92
2022/12/27 20:24:46;;;;;;;29.48;11.63;;;;;;;2.12;68.67;99197.75;4765802;30;20107;-93
2022/12/27 20:28:16;;;;;;;32.15;11.82;;;;;;;2.03;69.16;99192.00;4775337;30;20056;-92
2022/12/27 20:31:13;;;;;;;30.13;11.63;;;;;;;2.18;68.47;99179.69;4794769;30;20074;-96
2022/12/27 20:33:55;;;;;;;25.98;10.95;;;;;;;1.91;68.36;99131.28;4785474;30;20047;-93
2022/12/27 20:36:32;;;;;;;31.08;12.52;;;;;;;2.29;68.24;99197.56;4788714;30;20043;-93
2022/12/27 20:42:31;;;;;;;23.98;10.90;;;;;;;1.67;68.50;99093.13;5065283;23;20072;-93
2022/12/27 20:45:06;;;;;;;31.98;14.52;;;;;;;1.68;68.47;99074.00;4873754;29;20056;-94
2022/12/27 20:47:50;;;;;;;29.15;13.95;;;;;;;2.05;68.57;99138.66;4898783;29;20072;-95
2022/12/27 21:02:20;;;;;;;31.17;12.57;;;;;;;2.27;69.28;99178.94;4921109;29;20044;-92
2022/12/27 21:11:05;;;;;;;24.83;11.55;;;;;;;1.93;69.17;99092.22;5030436;23;20056;-95
2022/12/27 21:14:00;;;;;;;28.50;11.50;;;;;;;2.38;69.15;99152.00;4891564;29;20053;-95
2022/12/27 21:17:00;;;;;;;29.35;12.32;;;;;;;2.26;68.98;99142.25;4878363;29;20032;-94
2022/12/27 21:19:54;;;;;;;29.67;12.40;;;;;;;1.62;69.61;99056.19;4903321;29;20048;-94
2022/12/27 21:25:24;;;;;;;24.23;11.73;;;;;;;2.05;69.44;99109.00;4903883;29;20142;-95
2022/12/27 21:28:22;;;;;;;26.05;11.93;;;;;;;2.42;69.26;99153.94;4854968;29;20052;-95
2022/12/27 21:31:16;;;;;;;20.10;10.15;;;;;;;1.96;68.97;99072.81;4893979;29;20128;-94